フィレンツェ の空港の天気 - METARとTAF

フィレンツェ・ペレトラ空港 ( LIRQ / FLR ) - イタリア フィレンツェ
飛行場実況気象(Metar)
観測時間10/23 07:20 CEST (10/23 05:20 UTC)
風向・風速北 3m/s
視程10km以上
天気現象
少しの雲 雲底高度 1220m
気温15℃
湿度63%
気圧1022hPa
METARLIRQ 230520Z 36006KT 310V050 9999 FEW040 15/08 Q1022
過去の天気等 Google飛行場航空写真 Wunderground天気予報

過去48時間のMETAR

飛行場予報(TAF)
発表時間: 10/23 07:00 CEST (10/23 05:00 UTC)
予報対象時間: 23日8時 CEST ~ 24日8時 CEST
風向・風速北東 8m/s
視程10km以上
なし
TAF LIRQ 230500Z 2306/2406 04015KT CAVOK